createdAt,value
2022-10-01T00:01:49.991Z,100477.13
2022-10-01T00:04:52.957Z,100456.97
2022-10-01T00:07:55.951Z,100444.72
2022-10-01T00:11:02.382Z,100446.38
2022-10-01T00:14:10.766Z,100453.31
2022-10-01T00:17:13.880Z,100454.22
2022-10-01T00:20:17.098Z,100494.53
2022-10-01T00:23:20.072Z,100529.59
2022-10-01T00:26:27.291Z,100521.84
2022-10-01T00:29:32.002Z,100499.97
2022-10-01T00:32:35.142Z,100495.56
2022-10-01T00:35:38.597Z,100477.19
2022-10-01T00:38:42.323Z,100479.00
2022-10-01T00:41:45.199Z,100479.81
2022-10-01T00:44:49.827Z,100459.66
2022-10-01T00:47:58.030Z,100463.16
2022-10-01T00:51:01.242Z,100448.06
2022-10-01T00:54:13.359Z,100457.87
2022-10-01T00:57:21.994Z,100469.28
2022-10-01T01:00:25.288Z,100458.84
2022-10-01T01:03:28.776Z,100465.06
2022-10-01T01:06:31.573Z,100459.84
2022-10-01T01:09:37.876Z,100466.78
2022-10-01T01:13:09.405Z,100469.41
2022-10-01T01:16:27.961Z,100465.91
2022-10-01T01:19:54.044Z,100472.03
2022-10-01T01:23:32.115Z,100476.47
2022-10-01T01:26:59.133Z,100458.13
2022-10-01T01:30:06.518Z,100445.72
2022-10-01T01:33:17.828Z,100448.38
2022-10-01T01:36:32.411Z,100443.06
2022-10-01T01:39:36.168Z,100451.09
2022-10-01T01:42:43.088Z,100471.25
2022-10-01T01:45:51.274Z,100476.59
2022-10-01T01:48:57.830Z,100482.62
2022-10-01T01:52:10.660Z,100480.87
2022-10-01T01:55:13.424Z,100484.41
2022-10-01T01:58:20.565Z,100478.31
2022-10-01T02:01:32.763Z,100471.31
2022-10-01T02:04:43.399Z,100470.31
2022-10-01T02:07:55.119Z,100461.47
2022-10-01T02:11:18.907Z,100451.78
2022-10-01T02:14:32.780Z,100436.81
2022-10-01T02:18:16.608Z,100427.16
2022-10-01T02:21:38.428Z,100424.50
2022-10-01T02:24:49.324Z,100420.09
2022-10-01T02:27:59.598Z,100435.91
2022-10-01T02:31:04.350Z,100431.47
2022-10-01T02:34:12.402Z,100433.25
2022-10-01T02:37:19.348Z,100437.63
2022-10-01T02:40:26.531Z,100436.72
2022-10-01T02:43:39.414Z,100437.56
2022-10-01T02:47:09.015Z,100434.03
2022-10-01T02:50:13.034Z,100459.62
2022-10-01T02:53:32.625Z,100470.13
2022-10-01T02:56:56.348Z,100464.81
2022-10-01T03:00:13.226Z,100461.38
2022-10-01T03:03:16.059Z,100450.81
2022-10-01T03:06:18.689Z,100463.06
2022-10-01T03:09:21.878Z,100478.78
2022-10-01T03:12:24.516Z,100482.28
2022-10-01T03:15:28.095Z,100479.62
2022-10-01T03:18:31.284Z,100475.19
2022-10-01T03:21:38.045Z,100480.56
2022-10-01T03:24:47.272Z,100478.00
2022-10-01T03:27:52.171Z,100484.94
2022-10-01T03:31:10.264Z,100504.22
2022-10-01T03:34:16.626Z,100493.72
2022-10-01T03:37:19.123Z,100484.00
2022-10-01T03:40:21.875Z,100499.81
2022-10-01T03:43:24.567Z,100503.41
2022-10-01T03:46:27.895Z,100493.81
2022-10-01T03:49:30.675Z,100502.63
2022-10-01T03:52:33.397Z,100492.16
2022-10-01T03:55:36.954Z,100495.50
2022-10-01T03:58:40.040Z,100481.34
2022-10-01T04:01:43.867Z,100488.37
2022-10-01T04:04:46.967Z,100497.06
2022-10-01T04:07:49.973Z,100488.31
2022-10-01T04:10:54.078Z,100472.62
2022-10-01T04:14:00.713Z,100476.97
2022-10-01T04:17:04.610Z,100459.41
2022-10-01T04:20:15.701Z,100464.59
2022-10-01T04:23:18.759Z,100460.16
2022-10-01T04:26:21.287Z,100448.81
2022-10-01T04:29:24.238Z,100451.38
2022-10-01T04:32:26.980Z,100455.78
2022-10-01T04:35:29.868Z,100450.56
2022-10-01T04:38:32.492Z,100446.16
2022-10-01T04:41:36.151Z,100453.13
2022-10-01T04:44:39.607Z,100443.50
2022-10-01T04:47:52.991Z,100449.66
2022-10-01T04:50:55.533Z,100452.31
2022-10-01T04:53:58.658Z,100453.25
2022-10-01T04:57:01.302Z,100458.38
2022-10-01T05:00:06.646Z,100470.66
2022-10-01T05:03:17.148Z,100484.81
2022-10-01T05:06:23.038Z,100501.50
2022-10-01T05:09:32.000Z,100501.50
2022-10-01T05:12:35.170Z,100498.88
2022-10-01T05:15:38.561Z,100511.19
2022-10-01T05:18:43.509Z,100514.81
2022-10-01T05:21:46.514Z,100507.03
2022-10-01T05:24:50.255Z,100496.53
2022-10-01T05:27:53.163Z,100495.56
2022-10-01T05:31:05.993Z,100482.56
2022-10-01T05:34:09.987Z,100485.13
2022-10-01T05:37:15.009Z,100479.12
2022-10-01T05:40:22.046Z,100479.06
2022-10-01T05:43:27.810Z,100478.06
2022-10-01T05:46:38.024Z,100466.72
2022-10-01T05:49:44.750Z,100468.56
2022-10-01T05:52:54.024Z,100490.50
2022-10-01T05:56:00.308Z,100491.31
2022-10-01T05:59:05.032Z,100495.59
2022-10-01T06:02:11.117Z,100493.91
2022-10-01T06:05:22.739Z,100488.66
2022-10-01T06:08:29.798Z,100467.63
2022-10-01T06:11:42.057Z,100457.03
2022-10-01T06:14:47.816Z,100472.81
2022-10-01T06:17:51.193Z,100455.22
2022-10-01T06:20:58.801Z,100464.03
2022-10-01T06:24:12.026Z,100482.50
2022-10-01T06:27:15.781Z,100470.41
2022-10-01T06:30:18.749Z,100475.78
2022-10-01T06:33:26.825Z,100478.50
2022-10-01T06:36:37.721Z,100474.19
2022-10-01T06:39:43.872Z,100459.38
2022-10-01T06:42:54.797Z,100467.41
2022-10-01T06:46:11.131Z,100476.16
2022-10-01T06:49:15.813Z,100471.06
2022-10-01T06:52:37.136Z,100472.91
2022-10-01T06:55:48.704Z,100478.13
2022-10-01T06:58:58.790Z,100484.31
2022-10-01T07:06:26.163Z,100479.97
2022-10-01T07:09:31.824Z,100468.59
2022-10-01T07:12:38.392Z,100451.97
2022-10-01T07:15:48.915Z,100459.03
2022-10-01T07:18:52.454Z,100458.31
2022-10-01T07:21:56.112Z,100461.09
2022-10-01T07:25:01.536Z,100462.03
2022-10-01T07:28:08.869Z,100450.75
2022-10-01T07:31:15.118Z,100435.81
2022-10-01T07:34:33.034Z,100435.88
2022-10-01T07:37:37.800Z,100435.16
2022-10-01T07:40:43.215Z,100427.31
2022-10-01T07:43:54.963Z,100429.22
2022-10-01T07:47:05.108Z,100433.63
2022-10-01T07:50:10.836Z,100438.25
2022-10-01T07:53:27.661Z,100434.97
2022-10-01T07:56:33.801Z,100450.66
2022-10-01T07:59:41.836Z,100439.25
2022-10-01T08:02:56.866Z,100448.03
2022-10-01T08:06:00.223Z,100454.91
2022-10-01T08:09:18.711Z,100451.47
2022-10-01T08:12:30.822Z,100444.50
2022-10-01T08:15:36.083Z,100433.19
2022-10-01T08:18:44.364Z,100425.34
2022-10-01T08:21:47.744Z,100432.34
2022-10-01T08:24:51.456Z,100424.53
2022-10-01T08:28:09.203Z,100433.37
2022-10-01T08:31:16.154Z,100406.13
2022-10-01T08:34:20.339Z,100416.81
2022-10-01T08:37:30.875Z,100418.72
2022-10-01T08:40:42.276Z,100412.59
2022-10-01T08:43:45.365Z,100408.19
2022-10-01T08:46:51.456Z,100396.81
2022-10-01T08:50:01.122Z,100383.00
2022-10-01T08:53:12.051Z,100381.56
2022-10-01T08:56:38.963Z,100388.06
2022-10-01T09:00:00.853Z,100385.66
2022-10-01T09:03:11.965Z,100385.56
2022-10-01T09:06:23.066Z,100391.78
2022-10-01T09:09:27.990Z,100395.41
2022-10-01T09:12:52.084Z,100393.63
2022-10-01T09:16:08.834Z,100390.19
2022-10-01T09:19:40.785Z,100390.22
2022-10-01T09:22:51.351Z,100396.34
2022-10-01T09:25:57.659Z,100383.13
2022-10-01T09:29:03.805Z,100383.19
2022-10-01T09:32:18.811Z,100379.75
2022-10-01T09:35:31.584Z,100385.91
2022-10-01T09:38:49.172Z,100383.31
2022-10-01T09:42:00.824Z,100382.63
2022-10-01T09:45:11.793Z,100373.88
2022-10-01T09:48:27.830Z,100374.31
2022-10-01T09:51:44.193Z,100356.94
2022-10-01T09:54:57.666Z,100350.78
2022-10-01T09:58:10.777Z,100342.00
2022-10-01T10:01:39.129Z,100334.94
2022-10-01T10:04:44.023Z,100341.97
2022-10-01T10:07:52.983Z,100339.22
2022-10-01T10:11:00.938Z,100331.28
2022-10-01T10:14:12.171Z,100339.94
2022-10-01T10:17:18.291Z,100325.81
2022-10-01T10:20:39.919Z,100337.22
2022-10-01T10:23:50.782Z,100336.50
2022-10-01T10:26:58.853Z,100331.34
2022-10-01T10:30:14.924Z,100334.00
2022-10-01T10:33:22.451Z,100332.25
2022-10-01T10:36:29.840Z,100326.00
2022-10-01T10:39:42.117Z,100302.22
2022-10-01T10:42:58.584Z,100318.09
2022-10-01T10:46:08.842Z,100282.91
2022-10-01T10:49:17.688Z,100305.75
2022-10-01T10:52:37.068Z,100316.31
2022-10-01T10:55:42.885Z,100306.59
2022-10-01T10:58:53.748Z,100305.78
2022-10-01T11:02:08.140Z,100298.72
2022-10-01T11:05:22.312Z,100290.75
2022-10-01T11:08:31.751Z,100290.50
2022-10-01T11:11:55.213Z,100274.34
2022-10-01T11:15:36.012Z,100259.34
2022-10-01T11:19:31.121Z,100255.62
2022-10-01T11:23:01.717Z,100240.87
2022-10-01T11:26:27.099Z,100257.53
2022-10-01T11:30:12.881Z,100244.41
2022-10-01T11:33:45.454Z,100233.69
2022-10-01T11:37:10.955Z,100234.69
2022-10-01T11:40:27.119Z,100216.94
2022-10-01T11:43:41.822Z,100217.78
2022-10-01T11:46:54.558Z,100220.41
2022-10-01T11:50:15.709Z,100212.25
2022-10-01T11:53:31.052Z,100205.97
2022-10-01T11:57:00.838Z,100206.91
2022-10-01T12:00:08.897Z,100201.44
2022-10-01T12:03:29.830Z,100196.13
2022-10-01T12:07:03.785Z,100173.91
2022-10-01T12:10:40.750Z,100173.88
2022-10-01T12:13:55.461Z,100170.25
2022-10-01T12:17:12.843Z,100158.87
2022-10-01T12:20:30.843Z,100155.41
2022-10-01T12:24:11.717Z,100163.53
2022-10-01T12:27:37.435Z,100166.25
2022-10-01T12:30:51.825Z,100163.91
2022-10-01T12:34:17.159Z,100166.66
2022-10-01T12:38:08.874Z,100166.66
2022-10-01T12:41:45.241Z,100163.00
2022-10-01T12:45:26.004Z,100175.34
2022-10-01T12:48:42.772Z,100166.66
2022-10-01T12:52:37.918Z,100163.13
2022-10-01T12:56:03.822Z,100153.38
2022-10-01T12:59:44.893Z,100147.22
2022-10-01T13:03:23.828Z,100135.09
2022-10-01T13:06:49.813Z,100120.19
2022-10-01T13:10:07.201Z,100121.19
2022-10-01T13:13:35.792Z,100115.09
2022-10-01T13:16:48.822Z,100114.31
2022-10-01T13:20:21.375Z,100102.06
2022-10-01T13:23:37.898Z,100081.78
2022-10-01T13:26:57.850Z,100081.69
2022-10-01T13:30:17.070Z,100081.69
2022-10-01T13:33:32.914Z,100083.50
2022-10-01T13:36:40.816Z,100092.38
2022-10-01T13:39:47.840Z,100094.25
2022-10-01T13:43:00.401Z,100092.53
2022-10-01T13:46:09.021Z,100084.56
2022-10-01T13:49:36.035Z,100079.12
2022-10-01T13:52:41.799Z,100081.63
2022-10-01T13:55:50.074Z,100063.13
2022-10-01T13:58:55.072Z,100064.84
2022-10-01T14:02:03.500Z,100047.19
2022-10-01T14:05:16.844Z,100047.28
2022-10-01T14:08:32.879Z,100050.81
2022-10-01T14:12:05.350Z,100042.84
2022-10-01T14:15:42.928Z,100037.63
2022-10-01T14:18:56.983Z,100041.03
2022-10-01T14:22:21.871Z,100030.41
2022-10-01T14:25:51.435Z,100038.44
2022-10-01T14:29:13.802Z,100037.66
2022-10-01T14:32:54.800Z,100034.25
2022-10-01T14:36:45.426Z,100040.47
2022-10-01T14:40:12.257Z,100036.13
2022-10-01T14:43:32.159Z,100035.31
2022-10-01T14:46:37.523Z,100031.91
2022-10-01T14:49:41.769Z,100032.00
2022-10-01T14:52:55.960Z,100028.53
2022-10-01T14:56:10.513Z,100022.44
2022-10-01T14:59:41.093Z,100027.78
2022-10-01T15:03:01.833Z,100012.91
2022-10-01T15:06:21.026Z,100024.31
2022-10-01T15:09:35.819Z,100021.72
2022-10-01T15:12:42.016Z,100030.53
2022-10-01T15:15:45.063Z,100043.72
2022-10-01T15:19:07.828Z,100041.97
2022-10-01T15:22:16.784Z,100043.75
2022-10-01T15:25:25.789Z,100056.94
2022-10-01T15:28:34.764Z,100056.97
2022-10-01T15:31:40.061Z,100064.91
2022-10-01T15:34:54.273Z,100068.44
2022-10-01T15:38:09.888Z,100073.72
2022-10-01T15:41:40.392Z,100077.19
2022-10-01T15:44:50.351Z,100080.72
2022-10-01T15:47:58.569Z,100078.94
2022-10-01T15:51:18.126Z,100081.59
2022-10-01T15:54:22.548Z,100080.69
2022-10-01T15:57:33.834Z,100065.72
2022-10-01T16:01:00.114Z,100073.63
2022-10-01T16:04:07.771Z,100068.34
2022-10-01T16:07:26.278Z,100081.47
2022-10-01T16:10:41.800Z,100084.13
2022-10-01T16:13:50.738Z,100084.06
2022-10-01T16:17:27.227Z,100089.31
2022-10-01T16:20:36.949Z,100091.91
2022-10-01T16:23:43.894Z,100099.78
2022-10-01T16:26:48.198Z,100100.63
2022-10-01T16:30:12.108Z,100101.50
2022-10-01T16:33:29.205Z,100105.84
2022-10-01T16:36:45.871Z,100106.69
2022-10-01T16:39:50.208Z,100103.06
2022-10-01T16:43:03.700Z,100113.53
2022-10-01T16:46:08.320Z,100119.69
2022-10-01T16:49:14.385Z,100126.69
2022-10-01T16:52:24.748Z,100110.00
2022-10-01T16:55:39.512Z,100102.94
2022-10-01T16:58:52.906Z,100104.66
2022-10-01T17:01:58.829Z,100109.88
2022-10-01T17:05:08.819Z,100103.72
2022-10-01T17:08:20.810Z,100108.97
2022-10-01T17:11:32.093Z,100096.66
2022-10-01T17:14:41.791Z,100086.97
2022-10-01T17:17:47.062Z,100093.94
2022-10-01T17:20:50.815Z,100079.88
2022-10-01T17:24:04.901Z,100084.25
2022-10-01T17:27:11.820Z,100092.91
2022-10-01T17:30:18.142Z,100083.19
2022-10-01T17:33:22.841Z,100090.22
2022-10-01T17:36:28.137Z,100089.31
2022-10-01T17:39:34.840Z,100084.91
2022-10-01T17:42:52.001Z,100076.97
2022-10-01T17:46:12.832Z,100083.09
2022-10-01T17:49:20.849Z,100076.03
2022-10-01T17:52:27.014Z,100090.00
2022-10-01T17:55:37.933Z,100088.25
2022-10-01T17:58:47.112Z,100111.84
2022-10-01T18:05:15.224Z,100131.06
2022-10-01T18:08:29.551Z,100131.84
2022-10-01T18:11:44.148Z,100144.78
2022-10-01T18:14:47.266Z,100150.75
2022-10-01T18:18:58.734Z,100157.78
2022-10-01T18:21:25.739Z,100153.28
2022-10-01T18:24:35.001Z,100146.16
2022-10-01T18:27:41.800Z,100148.78
2022-10-01T18:31:18.883Z,100154.88
2022-10-01T18:34:37.994Z,100160.13
2022-10-01T18:37:57.946Z,100163.69
2022-10-01T18:41:24.403Z,100172.47
2022-10-01T18:44:28.416Z,100175.94
2022-10-01T18:47:46.808Z,100184.69
2022-10-01T18:51:30.046Z,100184.69
2022-10-01T18:54:51.935Z,100188.19
2022-10-01T18:58:32.945Z,100177.62
2022-10-01T19:02:03.290Z,100184.62
2022-10-01T19:05:58.208Z,100186.41
2022-10-01T19:09:10.046Z,100189.94
2022-10-01T19:13:07.849Z,100188.19
2022-10-01T19:16:19.856Z,100201.34
2022-10-01T19:19:41.972Z,100214.50
2022-10-01T19:23:07.079Z,100208.34
2022-10-01T19:26:31.152Z,100198.66
2022-10-01T19:30:01.629Z,100214.38
2022-10-01T19:33:21.128Z,100213.50
2022-10-01T19:36:34.362Z,100218.75
2022-10-01T19:39:45.086Z,100219.50
2022-10-01T19:43:01.870Z,100230.87
2022-10-01T19:46:16.819Z,100223.84
2022-10-01T19:49:35.373Z,100221.19
2022-10-01T19:52:51.496Z,100223.69
2022-10-01T19:56:03.172Z,100221.81
2022-10-01T19:59:29.762Z,100234.88
2022-10-01T20:02:41.933Z,100234.66
2022-10-01T20:05:54.834Z,100251.19
2022-10-01T20:09:14.909Z,100245.84
2022-10-01T20:12:31.087Z,100252.84
2022-10-01T20:15:45.078Z,100245.09
2022-10-01T20:19:16.155Z,100251.34
2022-10-01T20:22:36.973Z,100241.63
2022-10-01T20:25:58.176Z,100250.28
2022-10-01T20:29:34.915Z,100245.88
2022-10-01T20:33:12.022Z,100259.97
2022-10-01T20:40:56.193Z,100260.13
2022-10-01T20:44:09.337Z,100261.84
2022-10-01T20:47:37.838Z,100257.44
2022-10-01T20:50:54.211Z,100269.81
2022-10-01T20:55:17.131Z,100271.47
2022-10-01T20:58:36.002Z,100273.41
2022-10-01T21:02:10.002Z,100262.06
2022-10-01T21:05:54.211Z,100275.34
2022-10-01T21:09:37.334Z,100271.00
2022-10-01T21:12:48.336Z,100283.31
2022-10-01T21:16:16.410Z,100291.31
2022-10-01T21:20:02.401Z,100296.56
2022-10-01T21:23:50.931Z,100297.44
2022-10-01T21:27:25.934Z,100302.69
2022-10-01T21:30:53.475Z,100303.44
2022-10-01T21:34:22.835Z,100318.22
2022-10-01T21:37:36.633Z,100317.19
2022-10-01T21:40:51.355Z,100322.22
2022-10-01T21:44:35.252Z,100327.44
2022-10-01T21:47:58.889Z,100328.13
2022-10-01T21:51:48.804Z,100336.72
2022-10-01T21:54:52.848Z,100358.34
2022-10-01T21:58:26.711Z,100361.41
2022-10-01T22:01:55.550Z,100352.25
2022-10-01T22:05:24.586Z,100339.53
2022-10-01T22:08:46.192Z,100347.38
2022-10-01T22:11:53.934Z,100347.31
2022-10-01T22:14:59.469Z,100341.97
2022-10-01T22:18:09.054Z,100343.62
2022-10-01T22:21:18.169Z,100339.84
2022-10-01T22:24:26.825Z,100351.94
2022-10-01T22:27:50.694Z,100342.91
2022-10-01T22:30:56.380Z,100360.16
2022-10-01T22:34:09.406Z,100349.53
2022-10-01T22:37:17.398Z,100354.66
2022-10-01T22:40:35.920Z,100359.91
2022-10-01T22:43:43.217Z,100350.47
2022-10-01T22:47:04.230Z,100353.78
2022-10-01T22:50:25.703Z,100365.22
2022-10-01T22:53:55.212Z,100366.72
2022-10-01T22:57:07.493Z,100355.28
2022-10-01T23:00:14.884Z,100365.03
2022-10-01T23:03:35.982Z,100368.50
2022-10-01T23:07:11.929Z,100366.37
2022-10-01T23:10:36.865Z,100389.13
2022-10-01T23:13:56.626Z,100392.53
2022-10-01T23:17:05.859Z,100395.31
2022-10-01T23:20:28.097Z,100391.12
2022-10-01T23:23:33.034Z,100406.00
2022-10-01T23:26:51.855Z,100396.50
2022-10-01T23:30:07.972Z,100391.19
2022-10-01T23:33:33.305Z,100398.94
2022-10-01T23:36:47.530Z,100395.12
2022-10-01T23:39:52.863Z,100402.19
2022-10-01T23:43:09.985Z,100394.19
2022-10-01T23:46:31.753Z,100395.06
2022-10-01T23:49:40.059Z,100390.88
2022-10-01T23:52:52.838Z,100403.19
2022-10-01T23:56:31.071Z,100416.31
2022-10-01T23:59:46.073Z,100418.78
